Latest Coastal Weather Observations for Centre Island

IDD60701

Issued at 1:45 pm CST Tuesday 23 September 2014 (issued every 10 minutes, with the page automatically refreshed every 10 minutes)

About coastal observations | Map of coastal stations | Coastal observations for NT | Marine services | Other Formats
Station Details ID: 014703 Name: CENTRE ISLAND Lat: -15.74 Lon: 136.82 Height: 12.2 m
Data from the previous 72 hours. | See also: Recent months at Centre Island
Date/Time
CST
Temp

°C
Wind Pressure Rain
since 9am
mm
Weather Cloud Vis
km
Sea
Height
m
Swell
Dir
 
Speed
knots
Gust
knots
hPa Trend Height
m
Period
s
Dir
23/01:30pm 30.5 NNE 7 11 1012.4 - 0.0 - - - - - - -
23/01:00pm 30.3 ENE 6 8 1012.8 - 0.0 - - - - - - -
23/12:30pm 29.8 SE 5 6 1013.2 - 0.0 - - - - - - -
23/12:00pm 28.8 SE 5 6 1013.8 - 0.0 - - - - - - -
23/11:30am 27.3 SSE 4 5 1014.2 - 0.0 - - - - - - -
23/11:00am 27.2 SSE 4 5 1014.6 - 0.0 - - - - - - -
23/10:30am 25.8 SSE 4 5 1014.9 - 0.0 - - - - - - -
23/10:00am 25.4 SSE 5 6 1015.1 - 0.0 - - - - - - -
23/09:30am 25.4 SSE 5 7 1015.3 - 0.0 - - - - - - -
23/09:00am 24.4 S 6 8 1015.4 - 0.0 - - - - - - -
23/08:30am 24.4 S 8 10 1015.3 - 0.0 - - - - - - -
23/08:00am 23.7 S 9 10 1015.1 - 0.0 - - - - - - -
23/07:30am 23.1 S 9 11 1014.8 - 0.0 - - - - - - -
23/07:00am 22.6 S 9 11 1014.4 - 0.0 - - - - - - -
23/06:30am 22.0 SSE 9 11 1013.9 - 0.0 - - - - - - -
23/06:00am 21.8 SSE 10 11 1013.7 - 0.0 - - - - - - -
23/05:30am 21.8 SSE 10 11 1013.6 - 0.0 - - - - - - -
23/05:00am 21.8 SSE 9 11 1013.4 - 0.0 - - - - - - -
23/04:30am 21.7 S 9 11 1013.1 - 0.0 - - - - - - -
23/04:00am 21.8 S 9 11 1012.9 - 0.0 - - - - - - -
23/03:30am 22.1 S 8 9 1012.9 - 0.0 - - - - - - -
23/03:00am 22.3 S 8 10 1012.7 - 0.0 - - - - - - -
23/02:30am 22.9 N 6 8 1012.8 - 0.0 - - - - - - -
23/02:00am 22.5 NNW 6 7 1012.9 - 0.0 - - - - - - -
23/01:30am 21.2 NNW 5 6 1012.9 - 0.0 - - - - - - -
23/01:00am 21.1 CALM 0 0 1013.0 - 0.0 - - - - - - -
23/12:30am 21.7 CALM 0 0 1012.9 - 0.0 - - - - - - -
23/12:00am 21.5 NNW 2 3 1013.2 - 0.0 - - - - - - -
 
Date/Time
CST
Temp

°C
Wind Pressure Rain
since 9am
mm
Weather Cloud Vis
km
Sea
Height
m
Swell
Dir
 
Speed
knots
Gust
knots
hPa Trend Height
m
Period
s
Dir
22/11:30pm 21.8 NNW 3 4 1013.4 - 0.0 - - - - - - -
22/11:00pm 22.2 N 4 6 1013.6 - 0.0 - - - - - - -
22/10:30pm 24.0 N 8 12 1013.6 - 0.0 - - - - - - -
22/10:00pm 24.3 NNE 9 11 1013.8 - 0.0 - - - - - - -
22/09:30pm 24.3 NE 9 11 1013.5 - 0.0 - - - - - - -
22/09:00pm 24.4 NE 10 12 1013.5 - 0.0 - - - - - - -
22/08:30pm 24.6 NE 11 14 1013.2 - 0.0 - - - - - - -
22/08:00pm 24.7 NE 12 15 1012.9 - 0.0 - - - - - - -
22/07:30pm 24.8 NE 11 15 1012.6 - 0.0 - - - - - - -
22/07:00pm 24.9 ENE 13 15 1012.4 - 0.0 - - - - - - -
22/06:30pm 25.2 NE 13 16 1012.1 - 0.0 - - - - - - -
22/06:00pm 25.7 NE 12 15 1011.9 - 0.0 - - - - - - -
22/05:30pm 26.6 NE 11 15 1011.6 - 0.0 - - - - - - -
22/05:00pm 27.4 NNE 11 14 1011.5 - 0.0 - - - - - - -
22/04:30pm 28.4 NE 10 14 1011.7 - 0.0 - - - - - - -
22/04:00pm 29.6 ENE 9 12 1012.0 - 0.0 - - - - - - -
22/03:30pm 30.2 E 12 15 1012.2 - 0.0 - - - - - - -
22/03:00pm 30.0 E 13 16 1012.4 - 0.0 - - - - - - -
22/02:30pm 30.4 E 13 17 1012.7 - 0.0 - - - - - - -
22/02:00pm 30.1 E 16 20 1013.0 - 0.0 - - - - - - -
22/01:30pm 29.9 E 16 19 1013.6 - 0.0 - - - - - - -
22/01:00pm 29.5 E 17 20 1014.1 - 0.0 - - - - - - -
22/12:30pm 29.6 ESE 17 20 1014.7 - 0.0 - - - - - - -
22/12:00pm 28.8 ESE 17 20 1015.2 - 0.0 - - - - - - -
22/11:30am 29.2 ESE 18 22 1015.6 - 0.0 - - - - - - -
22/11:00am 28.4 ESE 19 23 1016.1 - 0.0 - - - - - - -
22/10:30am 28.0 ESE 20 24 1016.5 - 0.0 - - - - - - -
22/10:00am 27.8 ESE 15 17 1017.0 - 0.0 - - - - - - -
22/09:30am 26.5 ESE 12 14 1017.2 - 0.0 - - - - - - -
22/09:00am 25.7 SE 14 17 1017.2 - 0.0 - - - - - - -
22/08:30am 25.4 SE 14 17 1017.0 - 0.0 - - - - - - -
22/08:00am 24.6 SSE 17 21 1016.6 - 0.0 - - - - - - -
22/07:30am 24.1 SE 17 21 1016.2 - 0.0 - - - - - - -
22/07:00am 23.7 SSE 17 21 1015.8 - 0.0 - - - - - - -
22/06:30am 23.5 SSE 17 21 1015.3 - 0.0 - - - - - - -
22/06:00am 23.7 SSE 17 20 1014.9 - 0.0 - - - - - - -
22/05:30am 23.9 SSE 15 18 1014.4 - 0.0 - - - - - - -
22/05:00am 24.5 SSE 15 18 1014.0 - 0.0 - - - - - - -
22/04:30am 23.7 S 11 14 1013.8 - 0.0 - - - - - - -
22/04:00am 23.9 SSE 9 11 1013.8 - 0.0 - - - - - - -
22/03:30am 23.9 S 8 9 1013.7 - 0.0 - - - - - - -
22/03:00am 23.6 S 11 13 1014.0 - 0.0 - - - - - - -
22/02:30am 23.8 S 13 16 1014.2 - 0.0 - - - - - - -
22/02:00am 23.6 S 15 18 1014.2 - 0.0 - - - - - - -
22/01:30am 23.6 S 13 15 1014.4 - 0.0 - - - - - - -
22/01:00am 23.1 CALM 0 0 1014.3 - 0.0 - - - - - - -
22/12:30am 23.6 NNE 3 5 1014.5 - 0.0 - - - - - - -
22/12:00am 24.2 NNE 6 7 1014.6 - 0.0 - - - - - - -
 
Date/Time
CST
Temp

°C
Wind Pressure Rain
since 9am
mm
Weather Cloud Vis
km
Sea
Height
m
Swell
Dir
 
Speed
knots
Gust
knots
hPa Trend Height
m
Period
s
Dir
21/11:30pm 24.5 NNE 9 11 1014.7 - 0.0 - - - - - - -
21/11:00pm 24.6 NE 9 12 1014.7 - 0.0 - - - - - - -
21/10:30pm 24.6 NNE 9 13 1014.5 - 0.0 - - - - - - -
21/10:00pm 24.6 NE 11 14 1014.6 - 0.0 - - - - - - -
21/09:30pm 24.8 NE 11 14 1014.8 - 0.0 - - - - - - -
21/09:00pm 24.8 NE 12 15 1014.6 - 0.0 - - - - - - -
21/08:30pm 24.9 NE 13 16 1014.4 - 0.0 - - - - - - -
21/08:00pm 25.0 NE 12 15 1014.1 - 0.0 - - - - - - -
21/07:30pm 25.1 NE 13 16 1013.9 - 0.0 - - - - - - -
21/07:00pm 25.3 NE 13 16 1013.8 - 0.0 - - - - - - -
21/06:30pm 25.7 NE 12 15 1013.7 - 0.0 - - - - - - -
21/06:00pm 26.3 NE 12 15 1013.6 - 0.0 - - - - - - -
21/05:30pm 27.2 ENE 12 15 1013.3 - 0.0 - - - - - - -
21/05:00pm 28.0 E 13 16 1013.1 - 0.0 - - - - - - -
21/04:30pm 28.8 E 12 15 1013.2 - 0.0 - - - - - - -
21/04:00pm 29.3 E 12 14 1013.0 - 0.0 - - - - - - -
21/03:30pm 29.5 E 12 14 1012.9 - 0.0 - - - - - - -
21/03:00pm 29.8 E 13 17 1013.1 - 0.0 - - - - - - -
21/02:30pm 29.2 ESE 14 17 1013.2 - 0.0 - - - - - - -
21/02:00pm 29.2 ESE 16 19 1013.4 - 0.0 - - - - - - -
21/01:30pm 28.8 ESE 17 20 1014.1 - 0.0 - - - - - - -
21/01:00pm 28.8 ESE 18 20 1014.5 - 0.0 - - - - - - -
21/12:30pm 28.7 ESE 18 21 1015.0 - 0.0 - - - - - - -
21/12:00pm 28.3 ESE 17 20 1015.3 - 0.0 - - - - - - -
21/11:30am 28.4 ESE 17 20 1015.8 - 0.0 - - - - - - -
21/11:00am 29.0 ESE 18 22 1016.4 - 0.0 - - - - - - -
21/10:30am 27.7 E 21 24 1016.7 - 0.0 - - - - - - -
21/10:00am 27.8 E 19 25 1017.0 - 0.0 - - - - - - -
21/09:50am 27.8 E 19 25 1017.1 - 0.0 - - - - - - -
21/09:30am 28.2 SE 13 15 1016.5 - 0.0 - - - - - - -
21/09:00am 26.9 S 8 11 1016.4 - 0.0 - - - - - - -
21/08:30am 26.3 SSW 9 11 1016.1 - 0.0 - - - - - - -
21/08:00am 24.7 S 11 18 1015.6 - 0.0 - - - - - - -
21/07:30am 22.8 S 17 27 1015.2 - 0.0 - - - - - - -
21/07:24am 23.7 S 19 24 1015.5 - 0.0 - - - - - - -
21/07:00am 22.8 S 5 6 1014.2 - 0.0 - - - - - - -
21/06:30am 22.6 S 5 7 1013.8 - 0.0 - - - - - - -
21/06:00am 22.9 S 7 8 1013.5 - 0.0 - - - - - - -
21/05:30am 22.8 S 6 8 1013.1 - 0.0 - - - - - - -
21/05:00am 23.3 SSW 6 9 1012.8 - 0.0 - - - - - - -
21/04:30am 23.1 WSW 5 6 1012.5 - 0.0 - - - - - - -
21/04:00am 22.6 N 1 4 1012.2 - 0.0 - - - - - - -
21/03:30am 22.7 CALM 0 0 1012.1 - 0.0 - - - - - - -
21/03:00am 22.9 CALM 0 0 1012.2 - 0.0 - - - - - - -
21/02:30am 23.0 CALM 0 3 1012.4 - 0.0 - - - - - - -
21/02:00am 22.7 CALM 0 0 1012.5 - 0.0 - - - - - - -
21/01:30am 22.9 CALM 0 0 1012.8 - 0.0 - - - - - - -
21/01:00am 22.6 CALM 0 0 1013.0 - 0.0 - - - - - - -
21/12:30am 22.5 NW 1 3 1013.3 - 0.0 - - - - - - -
21/12:00am 22.8 NW 3 3 1013.5 - 0.0 - - - - - - -
 
Date/Time
CST
Temp

°C
Wind Pressure Rain
since 9am
mm
Weather Cloud Vis
km
Sea
Height
m
Swell
Dir
 
Speed
knots
Gust
knots
hPa Trend Height
m
Period
s
Dir
20/11:30pm 22.6 NW 3 4 1013.8 - 0.0 - - - - - - -
20/11:00pm 22.8 NNW 4 5 1013.7 - 0.0 - - - - - - -
20/10:30pm 23.3 N 4 6 1013.7 - 0.0 - - - - - - -
20/10:00pm 23.5 N 6 8 1013.6 - 0.0 - - - - - - -
20/09:30pm 23.5 N 5 7 1013.6 - 0.0 - - - - - - -
20/09:00pm 24.1 N 6 8 1013.4 - 0.0 - - - - - - -
20/08:30pm 24.4 N 7 9 1013.2 - 0.0 - - - - - - -
20/08:00pm 24.2 N 6 7 1013.2 - 0.0 - - - - - - -
20/07:30pm 24.9 N 6 9 1012.9 - 0.0 - - - - - - -
20/07:00pm 25.4 N 7 10 1012.6 - 0.0 - - - - - - -
20/06:30pm 25.9 NNE 8 11 1012.5 - 0.0 - - - - - - -
20/06:00pm 26.3 NE 7 9 1012.1 - 0.0 - - - - - - -
20/05:30pm 27.4 NE 8 10 1012.1 - 0.0 - - - - - - -
20/05:00pm 27.9 NNE 9 12 1012.0 - 0.0 - - - - - - -
20/04:30pm 29.3 NNE 9 13 1011.9 - 0.0 - - - - - - -
20/04:00pm 29.8 NNE 11 15 1011.9 - 0.0 - - - - - - -
20/03:30pm 30.1 NNE 13 18 1011.8 - 0.0 - - - - - - -
20/03:00pm 30.8 NNE 10 15 1012.0 - 0.0 - - - - - - -
20/02:30pm 31.6 NNE 10 15 1012.4 - 0.0 - - - - - - -
20/02:00pm 31.4 NE 11 14 1012.8 - 0.0 - - - - - - -

Other Formats:

Comma delimited format used in spreadsheet applications
http://www.bom.gov.au/fwo/IDD60701/IDD60701.94248.axf

JavaScript Object Notation format (JSON) in row-major order
http://www.bom.gov.au/fwo/IDD60701/IDD60701.94248.json